createdAt,value
2019-04-01T00:01:54.490Z,71.20
2019-04-01T00:04:24.997Z,71.16
2019-04-01T00:06:55.484Z,71.25
2019-04-01T00:09:25.968Z,71.61
2019-04-01T00:11:56.573Z,72.01
2019-04-01T00:14:27.154Z,72.49
2019-04-01T00:16:57.677Z,72.75
2019-04-01T00:19:28.136Z,73.27
2019-04-01T00:21:58.551Z,73.52
2019-04-01T00:24:29.050Z,73.47
2019-04-01T00:26:59.612Z,74.38
2019-04-01T00:29:30.114Z,74.02
2019-04-01T00:32:00.612Z,74.71
2019-04-01T00:34:31.162Z,74.81
2019-04-01T00:37:01.666Z,75.09
2019-04-01T00:39:32.132Z,74.74
2019-04-01T00:42:25.466Z,75.85
2019-04-01T00:44:56.557Z,76.39
2019-04-01T00:47:27.032Z,76.26
2019-04-01T00:49:57.518Z,76.23
2019-04-01T00:52:28.022Z,77.40
2019-04-01T00:54:58.806Z,77.66
2019-04-01T00:57:29.300Z,77.31
2019-04-01T00:59:59.838Z,77.46
2019-04-01T01:02:30.294Z,77.51
2019-04-01T01:05:00.793Z,78.66
2019-04-01T01:07:31.271Z,78.10
2019-04-01T01:10:01.760Z,78.30
2019-04-01T01:12:32.241Z,78.51
2019-04-01T01:15:02.797Z,78.98
2019-04-01T01:17:33.158Z,78.96
2019-04-01T01:20:03.667Z,78.93
2019-04-01T01:22:34.171Z,79.14
2019-04-01T01:25:04.682Z,79.21
2019-04-01T01:27:35.120Z,79.35
2019-04-01T01:30:05.813Z,79.40
2019-04-01T01:32:36.198Z,79.58
2019-04-01T01:35:06.806Z,79.34
2019-04-01T01:37:37.321Z,79.50
2019-04-01T01:40:07.975Z,79.63
2019-04-01T01:42:38.452Z,79.92
2019-04-01T01:45:08.922Z,80.08
2019-04-01T01:47:39.387Z,79.56
2019-04-01T01:50:09.844Z,79.19
2019-04-01T01:52:40.374Z,79.37
2019-04-01T01:55:11.474Z,79.58
2019-04-01T01:57:41.899Z,79.16
2019-04-01T02:00:13.854Z,79.43
2019-04-01T02:02:44.341Z,79.83
2019-04-01T02:05:14.816Z,79.56
2019-04-01T02:07:45.325Z,79.96
2019-04-01T02:10:15.776Z,79.49
2019-04-01T02:12:46.239Z,80.17
2019-04-01T02:15:16.817Z,80.14
2019-04-01T02:17:47.348Z,80.25
2019-04-01T02:20:17.850Z,80.07
2019-04-01T02:22:48.389Z,80.15
2019-04-01T02:25:18.911Z,80.08
2019-04-01T02:27:49.401Z,80.38
2019-04-01T02:30:19.907Z,80.57
2019-04-01T02:32:50.331Z,80.64
2019-04-01T02:35:20.771Z,81.40
2019-04-01T02:37:51.362Z,81.54
2019-04-01T02:40:22.461Z,81.63
2019-04-01T02:42:53.272Z,81.69
2019-04-01T02:45:23.754Z,81.89
2019-04-01T02:47:54.234Z,81.90
2019-04-01T02:50:24.708Z,81.98
2019-04-01T02:52:55.277Z,81.59
2019-04-01T02:55:25.715Z,81.89
2019-04-01T02:57:56.255Z,81.66
2019-04-01T03:00:26.824Z,81.72
2019-04-01T03:02:57.345Z,81.25
2019-04-01T03:05:27.824Z,81.85
2019-04-01T03:07:58.322Z,81.27
2019-04-01T03:10:28.920Z,81.26
2019-04-01T04:04:51.806Z,82.23
2019-04-01T04:07:22.386Z,81.90
2019-04-01T04:09:52.929Z,82.18
2019-04-01T04:12:23.502Z,82.41
2019-04-01T04:14:53.988Z,82.30
2019-04-01T04:17:24.596Z,82.26
2019-04-01T04:19:55.132Z,82.58
2019-04-01T04:22:25.828Z,82.62
2019-04-01T04:24:56.343Z,82.27
2019-04-01T04:27:26.943Z,82.83
2019-04-01T04:29:57.409Z,82.73
2019-04-01T04:32:27.925Z,82.66
2019-04-01T04:34:58.450Z,83.05
2019-04-01T04:37:28.910Z,82.85
2019-04-01T04:39:59.386Z,83.07
2019-04-01T04:42:29.875Z,83.24
2019-04-01T04:45:00.580Z,83.46
2019-04-01T04:47:31.083Z,83.73
2019-04-01T04:50:01.621Z,83.34
2019-04-01T04:52:32.206Z,83.56
2019-04-01T04:55:02.737Z,83.38
2019-04-01T04:57:33.336Z,82.81
2019-04-01T05:00:04.118Z,83.50
2019-04-01T05:02:34.653Z,83.56
2019-04-01T05:05:05.420Z,83.85
2019-04-01T05:07:36.020Z,84.36
2019-04-01T05:10:07.805Z,83.81
2019-04-01T05:12:38.503Z,83.89
2019-04-01T05:15:09.175Z,83.14
2019-04-01T05:17:39.654Z,83.00
2019-04-01T05:20:10.393Z,82.95
2019-04-01T05:22:42.195Z,83.67
2019-04-01T05:25:12.694Z,83.59
2019-04-01T05:27:45.801Z,84.06
2019-04-01T05:30:16.533Z,84.04
2019-04-01T05:32:50.061Z,84.00
2019-04-01T05:35:20.815Z,83.96
2019-04-01T05:37:51.295Z,84.37
2019-04-01T05:40:21.847Z,84.41
2019-04-01T05:42:52.346Z,84.96
2019-04-01T05:45:22.860Z,84.38
2019-04-01T05:47:53.977Z,84.73
2019-04-01T05:50:24.471Z,84.54
2019-04-01T05:52:55.789Z,84.51
2019-04-01T05:55:27.027Z,84.51
2019-04-01T05:57:57.503Z,84.26
2019-04-01T06:00:34.228Z,84.19
2019-04-01T06:03:04.698Z,84.33
2019-04-01T06:05:35.279Z,84.05
2019-04-01T06:08:05.790Z,83.84
2019-04-01T06:10:36.977Z,83.75
2019-04-01T06:13:07.491Z,83.91
2019-04-01T06:15:38.609Z,83.90
2019-04-01T06:18:09.107Z,84.27
2019-04-01T06:20:40.162Z,83.79
2019-04-01T06:23:10.717Z,84.15
2019-04-01T06:25:41.174Z,84.12
2019-04-01T06:28:11.712Z,84.11
2019-04-01T06:30:42.234Z,84.03
2019-04-01T06:33:12.709Z,84.05
2019-04-01T06:35:43.170Z,83.97
2019-04-01T06:38:13.716Z,84.19
2019-04-01T06:40:44.415Z,84.90
2019-04-01T06:43:14.923Z,84.50
2019-04-01T06:45:45.406Z,84.59
2019-04-01T06:48:15.999Z,83.96
2019-04-01T06:50:46.710Z,84.12
2019-04-01T06:53:17.179Z,82.92
2019-04-01T06:55:47.640Z,82.63
2019-04-01T06:58:18.168Z,82.78
2019-04-01T07:00:48.965Z,82.58
2019-04-01T07:03:19.396Z,82.64
2019-04-01T07:05:52.789Z,82.61
2019-04-01T07:08:23.309Z,81.88
2019-04-01T07:10:54.480Z,81.90
2019-04-01T07:13:24.977Z,81.17
2019-04-01T07:15:55.528Z,81.10
2019-04-01T07:18:26.135Z,80.91
2019-04-01T07:20:58.286Z,79.68
2019-04-01T07:23:28.824Z,78.95
2019-04-01T07:25:59.342Z,78.27
2019-04-01T07:28:29.974Z,78.35
2019-04-01T07:31:00.541Z,77.55
2019-04-01T07:33:31.034Z,78.73
2019-04-01T07:36:01.617Z,76.00
2019-04-01T07:38:32.214Z,75.85
2019-04-01T07:41:02.766Z,74.56
2019-04-01T07:43:33.231Z,74.33
2019-04-01T07:46:03.845Z,73.75
2019-04-01T07:48:34.436Z,71.18
2019-04-01T07:51:07.101Z,70.54
2019-04-01T07:53:37.171Z,69.75
2019-04-01T07:56:07.669Z,69.59
2019-04-01T07:58:38.142Z,69.08
2019-04-01T08:01:08.744Z,68.96
2019-04-01T08:03:41.879Z,67.78
2019-04-01T08:06:11.569Z,67.38
2019-04-01T08:08:42.195Z,61.39
2019-04-01T08:11:12.676Z,63.66
2019-04-01T08:13:43.159Z,62.24
2019-04-01T08:16:13.633Z,60.45
2019-04-01T08:18:44.144Z,60.16
2019-04-01T08:21:14.644Z,60.49
2019-04-01T08:23:45.368Z,59.10
2019-04-01T08:26:16.049Z,56.70
2019-04-01T08:28:46.551Z,58.22
2019-04-01T08:31:17.071Z,57.24
2019-04-01T08:33:50.233Z,57.28
2019-04-01T08:36:20.156Z,57.17
2019-04-01T08:38:55.286Z,55.96
2019-04-01T08:41:24.349Z,53.88
2019-04-01T08:43:54.897Z,53.93
2019-04-01T08:46:25.321Z,53.99
2019-04-01T08:48:56.273Z,54.37
2019-04-01T08:51:26.782Z,56.18
2019-04-01T08:53:57.273Z,55.92
2019-04-01T08:56:28.050Z,56.00
2019-04-01T08:58:58.564Z,54.58
2019-04-01T09:01:35.407Z,54.94
2019-04-01T09:04:01.432Z,55.33
2019-04-01T09:06:32.013Z,53.35
2019-04-01T09:09:05.553Z,52.38
2019-04-01T09:11:38.318Z,54.45
2019-04-01T09:14:08.674Z,52.92
2019-04-01T09:16:52.062Z,53.27
2019-04-01T09:19:22.615Z,51.59
2019-04-01T09:21:53.177Z,52.96
2019-04-01T09:24:23.748Z,51.82
2019-04-01T09:26:54.406Z,50.07
2019-04-01T09:29:24.986Z,50.93
2019-04-01T09:31:55.698Z,50.73
2019-04-01T09:34:26.253Z,50.44
2019-04-01T09:36:56.785Z,51.54
2019-04-01T09:39:27.376Z,51.03
2019-04-01T09:41:57.886Z,51.74
2019-04-01T09:44:36.701Z,51.50
2019-04-01T09:47:00.719Z,51.15
2019-04-01T09:49:31.280Z,50.65
2019-04-01T09:52:03.834Z,51.87
2019-04-01T09:54:34.138Z,49.81
2019-04-01T09:57:16.681Z,50.27
2019-04-01T09:59:36.898Z,49.03
2019-04-01T10:02:07.412Z,50.49
2019-04-01T10:04:37.923Z,50.55
2019-04-01T10:07:08.515Z,50.06
2019-04-01T10:09:39.083Z,49.74
2019-04-01T10:12:09.644Z,48.91
2019-04-01T10:14:40.183Z,50.35
2019-04-01T10:17:10.783Z,49.80
2019-04-01T10:19:41.308Z,49.43
2019-04-01T10:22:11.960Z,48.38
2019-04-01T10:24:42.515Z,48.21
2019-04-01T10:27:13.138Z,49.20
2019-04-01T10:29:43.624Z,49.33
2019-04-01T10:32:14.241Z,50.18
2019-04-01T10:34:44.727Z,48.03
2019-04-01T10:37:15.448Z,49.13
2019-04-01T10:39:46.036Z,49.53
2019-04-01T10:42:16.553Z,49.45
2019-04-01T10:44:47.107Z,50.21
2019-04-01T10:47:17.761Z,49.84
2019-04-01T10:49:48.302Z,47.92
2019-04-01T10:52:18.932Z,49.57
2019-04-01T10:54:49.511Z,50.28
2019-04-01T10:57:20.070Z,48.29
2019-04-01T10:59:50.641Z,48.33
2019-04-01T11:02:21.373Z,46.22
2019-04-01T11:04:51.927Z,46.78
2019-04-01T11:07:22.569Z,47.50
2019-04-01T11:09:53.259Z,46.08
2019-04-01T11:12:24.860Z,47.18
2019-04-01T11:14:55.387Z,46.70
2019-04-01T11:17:25.914Z,46.32
2019-04-01T11:19:56.555Z,47.95
2019-04-01T11:22:27.023Z,47.05
2019-04-01T11:24:57.555Z,45.23
2019-04-01T11:27:28.371Z,44.83
2019-04-01T11:29:58.841Z,45.61
2019-04-01T11:32:29.442Z,45.65
2019-04-01T11:35:00.028Z,46.24
2019-04-01T11:37:30.531Z,46.44
2019-04-01T11:40:01.189Z,47.93
2019-04-01T11:42:31.731Z,45.21
2019-04-01T11:45:05.594Z,46.38
2019-04-01T11:47:34.677Z,47.62
2019-04-01T11:50:05.278Z,43.83
2019-04-01T11:52:35.959Z,45.26
2019-04-01T11:55:08.935Z,45.51
2019-04-01T11:57:40.570Z,45.52
2019-04-01T12:00:14.528Z,48.36
2019-04-01T12:02:46.154Z,43.98
2019-04-01T12:05:16.727Z,45.49
2019-04-01T12:07:47.275Z,41.19
2019-04-01T12:10:17.747Z,42.81
2019-04-01T12:12:48.292Z,43.00
2019-04-01T12:15:18.985Z,41.88
2019-04-01T12:17:49.567Z,43.67
2019-04-01T12:20:20.043Z,40.79
2019-04-01T12:22:50.543Z,41.01
2019-04-01T12:25:21.167Z,40.40
2019-04-01T12:27:51.774Z,39.88
2019-04-01T12:30:22.386Z,39.55
2019-04-01T12:32:53.076Z,40.92
2019-04-01T12:35:23.561Z,42.29
2019-04-01T12:37:54.097Z,38.90
2019-04-01T12:40:24.612Z,39.31
2019-04-01T12:42:55.114Z,35.10
2019-04-01T12:45:26.422Z,30.37
2019-04-01T12:47:56.948Z,28.17
2019-04-01T12:50:27.582Z,27.63
2019-04-01T12:52:58.151Z,25.27
2019-04-01T12:55:28.648Z,24.76
2019-04-01T12:57:59.211Z,24.15
2019-04-01T13:00:29.780Z,22.52
2019-04-01T13:03:00.295Z,21.91
2019-04-01T13:05:30.824Z,22.25
2019-04-01T13:08:01.432Z,23.19
2019-04-01T13:10:31.963Z,22.17
2019-04-01T13:13:02.461Z,20.87
2019-04-01T13:15:33.057Z,22.49
2019-04-01T13:18:03.612Z,21.81
2019-04-01T13:20:38.204Z,19.79
2019-04-01T13:23:06.491Z,21.81
2019-04-01T13:25:37.115Z,22.24
2019-04-01T13:28:07.630Z,20.95
2019-04-01T13:30:38.330Z,20.25
2019-04-01T13:33:08.834Z,19.90
2019-04-01T13:35:39.936Z,18.92
2019-04-01T13:38:11.139Z,17.76
2019-04-01T13:40:42.486Z,20.96
2019-04-01T13:43:16.839Z,18.96
2019-04-01T13:45:46.320Z,17.85
2019-04-01T13:48:17.316Z,19.10
2019-04-01T13:50:47.770Z,18.30
2019-04-01T13:53:18.352Z,18.98
2019-04-01T13:55:48.889Z,18.33
2019-04-01T13:58:19.409Z,18.33
2019-04-01T14:00:49.928Z,19.15
2019-04-01T14:03:20.438Z,18.89
2019-04-01T14:05:50.971Z,19.22
2019-04-01T14:08:22.378Z,17.66
2019-04-01T14:10:54.483Z,18.27
2019-04-01T14:13:25.084Z,19.06
2019-04-01T14:15:55.637Z,19.60
2019-04-01T14:18:26.127Z,20.55
2019-04-01T14:20:56.659Z,18.46
2019-04-01T14:23:27.205Z,20.17
2019-04-01T14:25:57.698Z,20.06
2019-04-01T14:28:28.308Z,18.64
2019-04-01T14:30:58.839Z,19.32
2019-04-01T14:33:32.474Z,19.53
2019-04-01T14:36:01.810Z,20.09
2019-04-01T14:38:32.595Z,20.27
2019-04-01T14:41:03.198Z,19.63
2019-04-01T14:43:33.761Z,21.21
2019-04-01T14:46:05.803Z,19.68
2019-04-01T14:48:36.491Z,20.48
2019-04-01T14:51:07.105Z,20.61
2019-04-01T14:53:37.957Z,20.09
2019-04-01T14:56:08.728Z,18.31
2019-04-01T14:58:39.252Z,18.00
2019-04-01T15:01:11.176Z,18.27
2019-04-01T15:03:41.623Z,19.39
2019-04-01T15:06:12.168Z,20.93
2019-04-01T15:08:42.677Z,22.71
2019-04-01T15:11:13.330Z,21.51
2019-04-01T15:13:43.842Z,22.19
2019-04-01T15:16:14.388Z,22.23
2019-04-01T15:18:45.522Z,22.34
2019-04-01T15:21:16.315Z,20.44
2019-04-01T15:23:46.850Z,20.88
2019-04-01T15:26:17.369Z,20.74
2019-04-01T15:28:47.863Z,19.57
2019-04-01T15:31:18.397Z,20.41
2019-04-01T15:33:49.414Z,21.34
2019-04-01T15:36:20.709Z,21.55
2019-04-01T15:38:51.435Z,19.56
2019-04-01T15:41:21.892Z,20.76
2019-04-01T15:43:52.359Z,22.62
2019-04-01T15:46:22.922Z,20.51
2019-04-01T15:48:53.428Z,21.90
2019-04-01T15:51:23.947Z,21.10
2019-04-01T15:53:54.527Z,21.39
2019-04-01T15:56:25.553Z,22.21
2019-04-01T15:58:56.143Z,20.26
2019-04-01T16:01:30.092Z,20.86
2019-04-01T16:03:58.897Z,22.65
2019-04-01T16:06:32.292Z,20.97
2019-04-01T16:09:03.422Z,24.74
2019-04-01T16:11:34.053Z,22.65
2019-04-01T16:14:04.580Z,22.79
2019-04-01T16:16:36.071Z,21.54
2019-04-01T16:19:06.882Z,21.83
2019-04-01T16:21:37.527Z,22.37
2019-04-01T16:24:10.995Z,22.54
2019-04-01T16:26:40.394Z,23.21
2019-04-01T16:29:10.913Z,23.02
2019-04-01T16:31:41.452Z,24.57
2019-04-01T16:34:11.881Z,27.14
2019-04-01T16:36:42.536Z,28.12
2019-04-01T16:39:13.085Z,29.17
2019-04-01T16:41:43.560Z,31.57
2019-04-01T16:44:14.301Z,30.66
2019-04-01T16:46:45.646Z,33.32
2019-04-01T16:49:16.212Z,32.90
2019-04-01T16:51:46.773Z,34.16
2019-04-01T16:54:17.319Z,35.47
2019-04-01T16:56:47.769Z,36.41
2019-04-01T16:59:18.278Z,35.03
2019-04-01T17:01:48.773Z,35.48
2019-04-01T17:04:19.327Z,35.35
2019-04-01T17:06:49.913Z,36.37
2019-04-01T17:09:20.510Z,36.72
2019-04-01T17:11:54.175Z,36.15
2019-04-01T17:14:24.350Z,35.92
2019-04-01T17:16:55.338Z,37.15
2019-04-01T17:19:27.811Z,38.43
2019-04-01T17:21:58.134Z,38.09
2019-04-01T17:24:28.669Z,38.58
2019-04-01T17:27:11.668Z,38.49
2019-04-01T17:29:45.051Z,39.57
2019-04-01T17:32:15.728Z,40.07
2019-04-01T17:34:46.256Z,40.58
2019-04-01T17:37:16.741Z,42.39
2019-04-01T17:39:47.305Z,42.95
2019-04-01T17:42:17.887Z,43.30
2019-04-01T17:44:48.426Z,44.47
2019-04-01T17:47:18.915Z,43.09
2019-04-01T17:49:49.476Z,45.72
2019-04-01T17:52:19.965Z,47.37
2019-04-01T17:54:50.535Z,45.84
2019-04-01T17:57:21.068Z,46.24
2019-04-01T17:59:51.678Z,44.54
2019-04-01T18:02:29.873Z,46.34
2019-04-01T18:05:00.481Z,46.26
2019-04-01T18:07:31.111Z,47.64
2019-04-01T18:10:01.814Z,46.68
2019-04-01T18:12:32.416Z,47.96
2019-04-01T18:15:07.018Z,48.31
2019-04-01T18:17:37.995Z,48.73
2019-04-01T18:20:09.228Z,49.08
2019-04-01T18:22:40.188Z,49.56
2019-04-01T18:25:11.297Z,51.01
2019-04-01T18:27:42.031Z,50.69
2019-04-01T18:30:13.312Z,49.91
2019-04-01T18:32:43.846Z,50.85
2019-04-01T18:35:14.542Z,50.18
2019-04-01T18:37:45.103Z,51.93
2019-04-01T18:40:15.685Z,50.89
2019-04-01T18:42:46.259Z,52.39
2019-04-01T18:45:17.152Z,51.53
2019-04-01T18:47:47.752Z,52.22
2019-04-01T18:50:18.274Z,51.46
2019-04-01T18:52:49.329Z,51.00
2019-04-01T18:55:19.912Z,50.36
2019-04-01T18:57:50.648Z,51.20
2019-04-01T19:00:21.877Z,51.48
2019-04-01T19:02:55.368Z,51.27
2019-04-01T19:05:24.984Z,51.14
2019-04-01T19:07:55.716Z,52.79
2019-04-01T19:10:26.560Z,52.87
2019-04-01T19:13:05.758Z,52.02
2019-04-01T19:15:30.930Z,52.33
2019-04-01T19:18:01.987Z,52.02
2019-04-01T19:20:32.877Z,53.29
2019-04-01T19:23:03.613Z,54.29
2019-04-01T19:25:34.355Z,53.24
2019-04-01T19:28:04.987Z,52.73
2019-04-01T19:30:35.638Z,52.95
2019-04-01T19:33:06.837Z,53.12
2019-04-01T19:35:37.624Z,53.19
2019-04-01T19:38:08.188Z,54.17
2019-04-01T19:40:38.687Z,54.03
2019-04-01T19:43:09.221Z,53.80
2019-04-01T19:45:40.486Z,53.87
2019-04-01T19:48:11.058Z,54.66
2019-04-01T19:50:41.678Z,55.26
2019-04-01T19:53:12.183Z,54.36
2019-04-01T19:55:43.951Z,53.94
2019-04-01T19:58:14.620Z,52.95
2019-04-01T20:00:45.146Z,52.35
2019-04-01T20:03:15.665Z,50.81
2019-04-01T20:05:46.185Z,51.77
2019-04-01T20:08:16.843Z,51.82
2019-04-01T20:10:47.398Z,51.14
2019-04-01T20:13:17.894Z,51.87
2019-04-01T20:15:48.426Z,50.99
2019-04-01T20:18:18.950Z,51.29
2019-04-01T20:20:49.499Z,50.01
2019-04-01T20:23:20.011Z,49.76
2019-04-01T20:25:53.348Z,49.87
2019-04-01T20:28:23.848Z,50.41
2019-04-01T20:31:13.701Z,50.74
2019-04-01T20:33:44.229Z,49.95
2019-04-01T20:36:28.904Z,50.92
2019-04-01T20:38:58.934Z,49.75
2019-04-01T20:41:29.426Z,50.90
2019-04-01T20:43:59.983Z,49.60
2019-04-01T20:46:30.935Z,50.56
2019-04-01T20:49:02.444Z,51.17
2019-04-01T20:51:40.431Z,50.52
2019-04-01T20:54:11.369Z,49.90
2019-04-01T20:56:42.275Z,50.40
2019-04-01T20:59:12.771Z,51.57
2019-04-01T21:01:43.339Z,51.28
2019-04-01T21:04:13.847Z,50.84
2019-04-01T21:06:44.398Z,50.55
2019-04-01T21:09:16.168Z,51.51
2019-04-01T21:11:47.386Z,50.66
2019-04-01T21:14:18.554Z,51.12
2019-04-01T21:16:49.181Z,50.05
2019-04-01T21:19:19.708Z,51.39
2019-04-01T21:21:50.661Z,51.50
2019-04-01T21:24:21.654Z,50.49
2019-04-01T21:26:52.115Z,51.41
2019-04-01T21:29:23.215Z,50.90
2019-04-01T21:31:53.686Z,51.75
2019-04-01T21:34:24.398Z,51.51
2019-04-01T21:36:54.887Z,50.63
2019-04-01T21:39:25.434Z,50.42
2019-04-01T21:41:55.955Z,52.03
2019-04-01T21:44:26.477Z,51.68
2019-04-01T21:46:57.073Z,49.71
2019-04-01T21:49:27.556Z,49.71
2019-04-01T21:51:58.079Z,50.32
2019-04-01T21:54:28.647Z,51.73
2019-04-01T21:56:59.204Z,51.14
2019-04-01T21:59:30.604Z,52.19
2019-04-01T22:02:01.096Z,52.04
2019-04-01T22:04:31.615Z,52.04
2019-04-01T22:07:02.146Z,52.17
2019-04-01T22:09:33.917Z,51.43
2019-04-01T22:12:04.478Z,51.68
2019-04-01T22:14:35.066Z,51.44
2019-04-01T22:17:05.687Z,52.70
2019-04-01T22:19:36.313Z,52.98
2019-04-01T22:22:06.796Z,52.75
2019-04-01T22:24:37.331Z,53.41
2019-04-01T22:27:07.831Z,53.54
2019-04-01T22:29:38.350Z,53.34
2019-04-01T22:32:08.762Z,52.27
2019-04-01T22:34:39.290Z,53.30
2019-04-01T22:37:09.779Z,53.59
2019-04-01T22:39:40.267Z,54.55
2019-04-01T22:42:10.810Z,54.24
2019-04-01T22:44:41.347Z,54.36
2019-04-01T22:47:11.884Z,54.28
2019-04-01T22:49:42.396Z,54.20
2019-04-01T22:52:12.912Z,55.08
2019-04-01T22:54:43.422Z,53.90
2019-04-01T22:57:13.943Z,54.83
2019-04-01T22:59:44.449Z,55.99
2019-04-01T23:02:14.931Z,54.12
2019-04-01T23:04:45.456Z,54.87
2019-04-01T23:07:15.941Z,55.51
2019-04-01T23:09:46.533Z,56.20
2019-04-01T23:12:17.021Z,56.64
2019-04-01T23:14:48.173Z,55.88
2019-04-01T23:17:18.678Z,56.88
2019-04-01T23:19:49.280Z,56.65
2019-04-01T23:22:19.800Z,56.89
2019-04-01T23:24:50.350Z,57.56
2019-04-01T23:27:20.779Z,57.20
2019-04-01T23:29:51.657Z,56.51
2019-04-01T23:32:22.297Z,57.45
2019-04-01T23:34:52.851Z,58.42
2019-04-01T23:37:23.317Z,58.66
2019-04-01T23:39:53.759Z,58.62
2019-04-01T23:42:24.332Z,58.11
2019-04-01T23:44:54.910Z,57.33
2019-04-01T23:47:25.432Z,58.47
2019-04-01T23:49:55.976Z,57.92
2019-04-01T23:52:27.027Z,58.10
2019-04-01T23:54:57.556Z,59.45
2019-04-01T23:57:28.066Z,57.76
2019-04-01T23:59:58.583Z,56.92
